sensor_id;sensor_type;location;lat;lon;timestamp;temperature;humidity
7163;DHT22;3623;47.098;15.446;2023-05-29T00:01:26;14.70;99.90
7163;DHT22;3623;47.098;15.446;2023-05-29T00:03:53;14.70;99.90
7163;DHT22;3623;47.098;15.446;2023-05-29T00:06:20;14.70;99.90
7163;DHT22;3623;47.098;15.446;2023-05-29T00:08:47;14.60;99.90
7163;DHT22;3623;47.098;15.446;2023-05-29T00:11:14;14.30;99.90
7163;DHT22;3623;47.098;15.446;2023-05-29T00:13:41;14.90;99.90
7163;DHT22;3623;47.098;15.446;2023-05-29T00:16:08;14.60;99.90
7163;DHT22;3623;47.098;15.446;2023-05-29T00:18:37;14.70;99.90
7163;DHT22;3623;47.098;15.446;2023-05-29T00:21:11;14.60;99.90
7163;DHT22;3623;47.098;15.446;2023-05-29T00:23:39;14.60;99.90
7163;DHT22;3623;47.098;15.446;2023-05-29T00:26:06;14.60;99.90
7163;DHT22;3623;47.098;15.446;2023-05-29T00:28:34;14.50;99.90
7163;DHT22;3623;47.098;15.446;2023-05-29T00:31:01;14.40;99.90
7163;DHT22;3623;47.098;15.446;2023-05-29T00:33:29;14.50;99.90
7163;DHT22;3623;47.098;15.446;2023-05-29T00:35:58;14.30;99.90
7163;DHT22;3623;47.098;15.446;2023-05-29T00:38:26;14.20;99.90
7163;DHT22;3623;47.098;15.446;2023-05-29T00:40:53;14.20;99.90
7163;DHT22;3623;47.098;15.446;2023-05-29T00:43:20;14.30;99.90
7163;DHT22;3623;47.098;15.446;2023-05-29T00:45:47;14.30;99.90
7163;DHT22;3623;47.098;15.446;2023-05-29T00:48:14;14.50;99.90
7163;DHT22;3623;47.098;15.446;2023-05-29T00:50:41;14.70;99.90
7163;DHT22;3623;47.098;15.446;2023-05-29T00:53:10;14.60;99.90
7163;DHT22;3623;47.098;15.446;2023-05-29T00:55:37;14.60;99.90
7163;DHT22;3623;47.098;15.446;2023-05-29T00:58:05;14.60;99.90
7163;DHT22;3623;47.098;15.446;2023-05-29T01:00:32;14.60;99.90
7163;DHT22;3623;47.098;15.446;2023-05-29T01:03:00;14.60;99.90
7163;DHT22;3623;47.098;15.446;2023-05-29T01:05:32;14.60;99.90
7163;DHT22;3623;47.098;15.446;2023-05-29T01:07:59;14.70;99.90
7163;DHT22;3623;47.098;15.446;2023-05-29T01:10:28;14.50;99.90
7163;DHT22;3623;47.098;15.446;2023-05-29T01:13:00;14.50;99.90
7163;DHT22;3623;47.098;15.446;2023-05-29T01:15:37;14.60;99.90
7163;DHT22;3623;47.098;15.446;2023-05-29T01:18:41;14.50;99.90
7163;DHT22;3623;47.098;15.446;2023-05-29T01:21:13;14.60;99.90
7163;DHT22;3623;47.098;15.446;2023-05-29T01:23:53;14.60;99.90
7163;DHT22;3623;47.098;15.446;2023-05-29T01:26:43;14.40;99.90
7163;DHT22;3623;47.098;15.446;2023-05-29T01:29:14;14.30;99.90
7163;DHT22;3623;47.098;15.446;2023-05-29T01:31:42;14.20;99.90
7163;DHT22;3623;47.098;15.446;2023-05-29T01:34:10;14.10;99.90
7163;DHT22;3623;47.098;15.446;2023-05-29T01:36:37;14.00;99.90
7163;DHT22;3623;47.098;15.446;2023-05-29T01:39:05;14.10;99.90
7163;DHT22;3623;47.098;15.446;2023-05-29T01:41:34;13.80;99.90
7163;DHT22;3623;47.098;15.446;2023-05-29T01:44:08;13.80;99.90
7163;DHT22;3623;47.098;15.446;2023-05-29T01:46:36;13.80;99.90
7163;DHT22;3623;47.098;15.446;2023-05-29T01:49:04;13.80;99.90
7163;DHT22;3623;47.098;15.446;2023-05-29T01:51:32;13.60;99.90
7163;DHT22;3623;47.098;15.446;2023-05-29T01:53:59;13.60;99.90
7163;DHT22;3623;47.098;15.446;2023-05-29T01:56:27;13.50;99.90
7163;DHT22;3623;47.098;15.446;2023-05-29T01:58:55;13.60;99.90
7163;DHT22;3623;47.098;15.446;2023-05-29T02:01:24;13.40;99.90
7163;DHT22;3623;47.098;15.446;2023-05-29T02:03:51;13.40;99.90
7163;DHT22;3623;47.098;15.446;2023-05-29T02:06:19;13.40;99.90
7163;DHT22;3623;47.098;15.446;2023-05-29T02:08:46;13.40;99.90
7163;DHT22;3623;47.098;15.446;2023-05-29T02:11:13;13.30;99.90
7163;DHT22;3623;47.098;15.446;2023-05-29T02:13:41;13.20;99.90
7163;DHT22;3623;47.098;15.446;2023-05-29T02:16:09;13.20;99.90
7163;DHT22;3623;47.098;15.446;2023-05-29T02:18:37;13.20;99.90
7163;DHT22;3623;47.098;15.446;2023-05-29T02:21:04;13.20;99.90
7163;DHT22;3623;47.098;15.446;2023-05-29T02:23:32;13.10;99.90
7163;DHT22;3623;47.098;15.446;2023-05-29T02:25:59;13.10;99.90
7163;DHT22;3623;47.098;15.446;2023-05-29T02:28:26;13.00;99.90
7163;DHT22;3623;47.098;15.446;2023-05-29T02:30:54;13.10;99.90
7163;DHT22;3623;47.098;15.446;2023-05-29T02:33:21;13.00;99.90
7163;DHT22;3623;47.098;15.446;2023-05-29T02:35:49;12.90;99.90
7163;DHT22;3623;47.098;15.446;2023-05-29T02:38:16;12.90;99.90
7163;DHT22;3623;47.098;15.446;2023-05-29T02:40:44;13.00;99.90
7163;DHT22;3623;47.098;15.446;2023-05-29T02:43:12;12.80;99.90
7163;DHT22;3623;47.098;15.446;2023-05-29T02:45:39;12.80;99.90
7163;DHT22;3623;47.098;15.446;2023-05-29T02:48:06;12.80;99.90
7163;DHT22;3623;47.098;15.446;2023-05-29T02:50:33;12.80;99.90
7163;DHT22;3623;47.098;15.446;2023-05-29T02:53:02;12.80;99.90
7163;DHT22;3623;47.098;15.446;2023-05-29T02:55:29;12.70;99.90
7163;DHT22;3623;47.098;15.446;2023-05-29T02:57:57;12.70;99.90
7163;DHT22;3623;47.098;15.446;2023-05-29T03:00:26;12.70;99.90
7163;DHT22;3623;47.098;15.446;2023-05-29T03:02:54;12.70;99.90
7163;DHT22;3623;47.098;15.446;2023-05-29T03:05:21;12.70;99.90
7163;DHT22;3623;47.098;15.446;2023-05-29T03:07:48;12.70;99.90
7163;DHT22;3623;47.098;15.446;2023-05-29T03:10:17;12.30;99.90
7163;DHT22;3623;47.098;15.446;2023-05-29T03:12:44;12.70;99.90
7163;DHT22;3623;47.098;15.446;2023-05-29T03:15:11;12.70;99.90
7163;DHT22;3623;47.098;15.446;2023-05-29T03:17:38;12.70;99.90
7163;DHT22;3623;47.098;15.446;2023-05-29T03:20:06;12.70;99.90
7163;DHT22;3623;47.098;15.446;2023-05-29T03:22:34;12.70;99.90
7163;DHT22;3623;47.098;15.446;2023-05-29T03:25:02;12.80;99.90
7163;DHT22;3623;47.098;15.446;2023-05-29T03:27:31;12.70;99.90
7163;DHT22;3623;47.098;15.446;2023-05-29T03:29:58;12.80;99.90
7163;DHT22;3623;47.098;15.446;2023-05-29T03:32:25;12.70;99.90
7163;DHT22;3623;47.098;15.446;2023-05-29T03:34:52;12.70;99.90
7163;DHT22;3623;47.098;15.446;2023-05-29T03:37:21;12.60;99.90
7163;DHT22;3623;47.098;15.446;2023-05-29T03:39:48;12.60;99.90
7163;DHT22;3623;47.098;15.446;2023-05-29T03:42:15;12.60;99.90
7163;DHT22;3623;47.098;15.446;2023-05-29T03:44:43;12.50;99.90
7163;DHT22;3623;47.098;15.446;2023-05-29T03:47:10;12.40;99.90
7163;DHT22;3623;47.098;15.446;2023-05-29T03:49:41;12.50;99.90
7163;DHT22;3623;47.098;15.446;2023-05-29T03:52:11;12.60;99.90
7163;DHT22;3623;47.098;15.446;2023-05-29T03:54:38;12.60;99.90
7163;DHT22;3623;47.098;15.446;2023-05-29T03:57:05;12.60;99.90
7163;DHT22;3623;47.098;15.446;2023-05-29T03:59:32;12.60;99.90
7163;DHT22;3623;47.098;15.446;2023-05-29T04:02:01;12.50;99.90
7163;DHT22;3623;47.098;15.446;2023-05-29T04:04:28;12.60;99.90
7163;DHT22;3623;47.098;15.446;2023-05-29T04:06:55;12.60;99.90
7163;DHT22;3623;47.098;15.446;2023-05-29T04:09:23;12.70;99.90
7163;DHT22;3623;47.098;15.446;2023-05-29T04:11:50;12.70;99.90
7163;DHT22;3623;47.098;15.446;2023-05-29T04:14:20;12.70;99.90
7163;DHT22;3623;47.098;15.446;2023-05-29T04:16:47;12.70;99.90
7163;DHT22;3623;47.098;15.446;2023-05-29T04:19:16;12.60;99.90
7163;DHT22;3623;47.098;15.446;2023-05-29T04:21:43;12.70;99.90
7163;DHT22;3623;47.098;15.446;2023-05-29T04:24:10;12.80;99.90
7163;DHT22;3623;47.098;15.446;2023-05-29T04:26:37;12.80;99.90
7163;DHT22;3623;47.098;15.446;2023-05-29T04:29:07;12.90;99.90
7163;DHT22;3623;47.098;15.446;2023-05-29T04:31:35;12.90;99.90
7163;DHT22;3623;47.098;15.446;2023-05-29T04:34:03;12.90;99.90
7163;DHT22;3623;47.098;15.446;2023-05-29T04:36:32;12.90;99.90
7163;DHT22;3623;47.098;15.446;2023-05-29T04:39:04;13.00;99.90
7163;DHT22;3623;47.098;15.446;2023-05-29T04:41:32;13.00;99.90
7163;DHT22;3623;47.098;15.446;2023-05-29T04:44:01;13.10;99.90
7163;DHT22;3623;47.098;15.446;2023-05-29T04:46:29;13.20;99.90
7163;DHT22;3623;47.098;15.446;2023-05-29T04:48:56;13.20;99.90
7163;DHT22;3623;47.098;15.446;2023-05-29T04:51:24;13.20;99.90
7163;DHT22;3623;47.098;15.446;2023-05-29T04:53:52;13.30;99.90
7163;DHT22;3623;47.098;15.446;2023-05-29T04:56:19;13.30;99.90
7163;DHT22;3623;47.098;15.446;2023-05-29T04:58:46;13.40;99.90
7163;DHT22;3623;47.098;15.446;2023-05-29T05:01:13;13.40;99.90
7163;DHT22;3623;47.098;15.446;2023-05-29T05:03:41;13.40;99.90
7163;DHT22;3623;47.098;15.446;2023-05-29T05:06:08;13.50;99.90
7163;DHT22;3623;47.098;15.446;2023-05-29T05:08:35;13.50;99.90
7163;DHT22;3623;47.098;15.446;2023-05-29T05:11:04;13.60;99.90
7163;DHT22;3623;47.098;15.446;2023-05-29T05:13:32;13.60;99.90
7163;DHT22;3623;47.098;15.446;2023-05-29T05:15:59;13.70;99.90
7163;DHT22;3623;47.098;15.446;2023-05-29T05:18:26;13.70;99.90
7163;DHT22;3623;47.098;15.446;2023-05-29T05:20:53;13.80;99.90
7163;DHT22;3623;47.098;15.446;2023-05-29T05:23:20;13.90;99.90
7163;DHT22;3623;47.098;15.446;2023-05-29T05:25:47;14.00;99.90
7163;DHT22;3623;47.098;15.446;2023-05-29T05:28:16;14.00;99.90
7163;DHT22;3623;47.098;15.446;2023-05-29T05:30:43;14.30;99.90
7163;DHT22;3623;47.098;15.446;2023-05-29T05:33:10;14.20;99.90
7163;DHT22;3623;47.098;15.446;2023-05-29T05:35:37;14.20;99.90
7163;DHT22;3623;47.098;15.446;2023-05-29T05:38:04;14.30;99.90
7163;DHT22;3623;47.098;15.446;2023-05-29T05:40:32;14.40;99.90
7163;DHT22;3623;47.098;15.446;2023-05-29T05:42:59;14.40;99.90
7163;DHT22;3623;47.098;15.446;2023-05-29T05:45:27;14.60;99.90
7163;DHT22;3623;47.098;15.446;2023-05-29T05:47:56;14.70;99.90
7163;DHT22;3623;47.098;15.446;2023-05-29T05:50:23;14.90;99.90
7163;DHT22;3623;47.098;15.446;2023-05-29T05:52:50;14.80;99.90
7163;DHT22;3623;47.098;15.446;2023-05-29T05:55:18;14.90;99.90
7163;DHT22;3623;47.098;15.446;2023-05-29T05:57:45;15.00;99.90
7163;DHT22;3623;47.098;15.446;2023-05-29T06:00:13;15.50;99.90
7163;DHT22;3623;47.098;15.446;2023-05-29T06:02:41;15.20;99.90
7163;DHT22;3623;47.098;15.446;2023-05-29T06:05:10;15.20;99.90
7163;DHT22;3623;47.098;15.446;2023-05-29T06:07:37;15.40;99.90
7163;DHT22;3623;47.098;15.446;2023-05-29T06:10:05;15.50;99.90
7163;DHT22;3623;47.098;15.446;2023-05-29T06:12:33;15.60;99.90
7163;DHT22;3623;47.098;15.446;2023-05-29T06:15:00;15.60;99.90
7163;DHT22;3623;47.098;15.446;2023-05-29T06:17:28;15.90;99.90
7163;DHT22;3623;47.098;15.446;2023-05-29T06:19:57;15.90;99.90
7163;DHT22;3623;47.098;15.446;2023-05-29T06:22:24;16.20;99.90
7163;DHT22;3623;47.098;15.446;2023-05-29T06:24:51;16.40;99.90
7163;DHT22;3623;47.098;15.446;2023-05-29T06:27:18;16.00;99.90
7163;DHT22;3623;47.098;15.446;2023-05-29T06:29:45;16.90;99.90
7163;DHT22;3623;47.098;15.446;2023-05-29T06:32:12;16.80;99.90
7163;DHT22;3623;47.098;15.446;2023-05-29T06:34:39;16.80;99.90
7163;DHT22;3623;47.098;15.446;2023-05-29T06:37:08;16.80;99.90
7163;DHT22;3623;47.098;15.446;2023-05-29T06:39:35;17.00;99.90
7163;DHT22;3623;47.098;15.446;2023-05-29T06:42:03;16.80;99.90
7163;DHT22;3623;47.098;15.446;2023-05-29T06:44:30;16.70;99.90
7163;DHT22;3623;47.098;15.446;2023-05-29T06:46:57;17.00;99.90
7163;DHT22;3623;47.098;15.446;2023-05-29T06:49:24;17.00;99.90
7163;DHT22;3623;47.098;15.446;2023-05-29T06:51:51;17.20;99.90
7163;DHT22;3623;47.098;15.446;2023-05-29T06:54:20;17.30;99.90
7163;DHT22;3623;47.098;15.446;2023-05-29T06:56:47;17.30;99.90
7163;DHT22;3623;47.098;15.446;2023-05-29T06:59:14;17.40;99.90
7163;DHT22;3623;47.098;15.446;2023-05-29T07:01:41;17.50;99.90
7163;DHT22;3623;47.098;15.446;2023-05-29T07:04:08;17.40;99.90
7163;DHT22;3623;47.098;15.446;2023-05-29T07:06:35;17.60;99.90
7163;DHT22;3623;47.098;15.446;2023-05-29T07:09:02;17.80;99.90
7163;DHT22;3623;47.098;15.446;2023-05-29T07:11:31;17.90;99.90
7163;DHT22;3623;47.098;15.446;2023-05-29T07:13:58;18.10;99.90
7163;DHT22;3623;47.098;15.446;2023-05-29T07:16:25;18.10;99.90
7163;DHT22;3623;47.098;15.446;2023-05-29T07:18:53;18.50;99.90
7163;DHT22;3623;47.098;15.446;2023-05-29T07:21:20;18.70;99.90
7163;DHT22;3623;47.098;15.446;2023-05-29T07:23:47;18.80;99.90
7163;DHT22;3623;47.098;15.446;2023-05-29T07:26:14;19.00;99.90
7163;DHT22;3623;47.098;15.446;2023-05-29T07:28:43;19.30;99.90
7163;DHT22;3623;47.098;15.446;2023-05-29T07:31:10;19.50;99.90
7163;DHT22;3623;47.098;15.446;2023-05-29T07:33:39;19.70;99.90
7163;DHT22;3623;47.098;15.446;2023-05-29T07:36:07;19.50;99.90
7163;DHT22;3623;47.098;15.446;2023-05-29T07:38:34;19.80;99.90
7163;DHT22;3623;47.098;15.446;2023-05-29T07:41:01;20.40;99.90
7163;DHT22;3623;47.098;15.446;2023-05-29T07:43:28;20.90;99.90
7163;DHT22;3623;47.098;15.446;2023-05-29T07:45:57;21.40;99.90
7163;DHT22;3623;47.098;15.446;2023-05-29T07:48:24;21.90;99.90
7163;DHT22;3623;47.098;15.446;2023-05-29T07:50:51;21.40;99.90
7163;DHT22;3623;47.098;15.446;2023-05-29T07:53:18;21.00;99.90
7163;DHT22;3623;47.098;15.446;2023-05-29T07:55:45;20.90;99.90
7163;DHT22;3623;47.098;15.446;2023-05-29T07:58:12;20.70;99.90
7163;DHT22;3623;47.098;15.446;2023-05-29T08:00:43;20.50;99.90
7163;DHT22;3623;47.098;15.446;2023-05-29T08:03:12;20.90;99.90
7163;DHT22;3623;47.098;15.446;2023-05-29T08:05:39;20.80;99.90
7163;DHT22;3623;47.098;15.446;2023-05-29T08:08:06;20.70;99.90
7163;DHT22;3623;47.098;15.446;2023-05-29T08:10:33;20.70;99.90
7163;DHT22;3623;47.098;15.446;2023-05-29T08:13:00;20.50;99.90
7163;DHT22;3623;47.098;15.446;2023-05-29T08:15:28;19.60;99.90
7163;DHT22;3623;47.098;15.446;2023-05-29T08:17:59;20.00;99.90
7163;DHT22;3623;47.098;15.446;2023-05-29T08:20:29;20.00;99.90
7163;DHT22;3623;47.098;15.446;2023-05-29T08:23:00;20.10;99.90
7163;DHT22;3623;47.098;15.446;2023-05-29T08:25:27;20.30;99.90
7163;DHT22;3623;47.098;15.446;2023-05-29T08:27:54;20.30;99.90
7163;DHT22;3623;47.098;15.446;2023-05-29T08:30:21;20.50;99.90
7163;DHT22;3623;47.098;15.446;2023-05-29T08:32:48;20.70;99.90
7163;DHT22;3623;47.098;15.446;2023-05-29T08:35:16;20.70;99.90
7163;DHT22;3623;47.098;15.446;2023-05-29T08:37:44;20.60;99.90
7163;DHT22;3623;47.098;15.446;2023-05-29T08:40:12;20.70;99.90
7163;DHT22;3623;47.098;15.446;2023-05-29T08:42:43;20.90;99.90
7163;DHT22;3623;47.098;15.446;2023-05-29T08:45:16;21.20;99.90
7163;DHT22;3623;47.098;15.446;2023-05-29T08:47:46;21.10;99.90
7163;DHT22;3623;47.098;15.446;2023-05-29T08:50:17;21.00;99.90
7163;DHT22;3623;47.098;15.446;2023-05-29T08:52:45;21.40;99.90
7163;DHT22;3623;47.098;15.446;2023-05-29T08:55:13;21.70;99.90
7163;DHT22;3623;47.098;15.446;2023-05-29T08:57:40;22.00;99.90
7163;DHT22;3623;47.098;15.446;2023-05-29T09:00:10;21.50;99.90
7163;DHT22;3623;47.098;15.446;2023-05-29T09:02:39;21.60;99.90
7163;DHT22;3623;47.098;15.446;2023-05-29T09:05:07;21.80;99.90
7163;DHT22;3623;47.098;15.446;2023-05-29T09:07:35;21.70;99.90
7163;DHT22;3623;47.098;15.446;2023-05-29T09:10:07;21.80;99.90
7163;DHT22;3623;47.098;15.446;2023-05-29T09:12:35;22.10;99.90
7163;DHT22;3623;47.098;15.446;2023-05-29T09:15:03;22.20;99.90
7163;DHT22;3623;47.098;15.446;2023-05-29T09:17:34;22.00;99.90
7163;DHT22;3623;47.098;15.446;2023-05-29T09:20:01;22.00;99.90
7163;DHT22;3623;47.098;15.446;2023-05-29T09:22:33;22.10;99.90
7163;DHT22;3623;47.098;15.446;2023-05-29T09:25:00;22.20;99.90
7163;DHT22;3623;47.098;15.446;2023-05-29T09:27:31;22.30;99.90
7163;DHT22;3623;47.098;15.446;2023-05-29T09:29:58;22.30;99.90
7163;DHT22;3623;47.098;15.446;2023-05-29T09:32:32;22.10;99.90
7163;DHT22;3623;47.098;15.446;2023-05-29T09:35:00;22.00;99.90
7163;DHT22;3623;47.098;15.446;2023-05-29T09:37:27;21.60;99.90
7163;DHT22;3623;47.098;15.446;2023-05-29T09:39:55;21.70;99.90
7163;DHT22;3623;47.098;15.446;2023-05-29T09:42:22;22.00;99.90
7163;DHT22;3623;47.098;15.446;2023-05-29T09:44:51;22.20;99.90
7163;DHT22;3623;47.098;15.446;2023-05-29T09:47:19;22.30;99.90
7163;DHT22;3623;47.098;15.446;2023-05-29T09:49:46;22.40;99.90
7163;DHT22;3623;47.098;15.446;2023-05-29T09:52:14;22.30;99.90
7163;DHT22;3623;47.098;15.446;2023-05-29T09:54:42;22.60;99.90
7163;DHT22;3623;47.098;15.446;2023-05-29T09:57:13;22.20;99.90
7163;DHT22;3623;47.098;15.446;2023-05-29T09:59:41;22.20;99.90
7163;DHT22;3623;47.098;15.446;2023-05-29T10:02:12;22.40;99.90
7163;DHT22;3623;47.098;15.446;2023-05-29T10:04:41;22.90;99.90
7163;DHT22;3623;47.098;15.446;2023-05-29T10:07:15;23.20;99.90
7163;DHT22;3623;47.098;15.446;2023-05-29T10:09:47;23.40;99.90
7163;DHT22;3623;47.098;15.446;2023-05-29T10:12:20;23.50;99.90
7163;DHT22;3623;47.098;15.446;2023-05-29T10:14:49;23.20;99.90
7163;DHT22;3623;47.098;15.446;2023-05-29T10:17:19;22.80;99.90
7163;DHT22;3623;47.098;15.446;2023-05-29T10:19:52;23.30;99.90
7163;DHT22;3623;47.098;15.446;2023-05-29T10:22:20;24.10;99.90
7163;DHT22;3623;47.098;15.446;2023-05-29T10:24:49;24.20;99.90
7163;DHT22;3623;47.098;15.446;2023-05-29T10:27:18;24.60;99.90
7163;DHT22;3623;47.098;15.446;2023-05-29T10:29:50;25.30;99.90
7163;DHT22;3623;47.098;15.446;2023-05-29T10:32:27;25.40;99.90
7163;DHT22;3623;47.098;15.446;2023-05-29T10:35:00;25.70;99.90
7163;DHT22;3623;47.098;15.446;2023-05-29T10:37:37;27.00;99.90
7163;DHT22;3623;47.098;15.446;2023-05-29T10:40:08;27.20;99.90
7163;DHT22;3623;47.098;15.446;2023-05-29T10:45:50;27.60;99.90
7163;DHT22;3623;47.098;15.446;2023-05-29T10:48:41;26.90;99.90
7163;DHT22;3623;47.098;15.446;2023-05-29T10:51:10;26.90;99.90
7163;DHT22;3623;47.098;15.446;2023-05-29T10:53:50;26.90;99.90
7163;DHT22;3623;47.098;15.446;2023-05-29T10:58:52;28.40;99.90
7163;DHT22;3623;47.098;15.446;2023-05-29T11:01:21;29.00;99.90
7163;DHT22;3623;47.098;15.446;2023-05-29T11:03:50;29.70;99.90
7163;DHT22;3623;47.098;15.446;2023-05-29T11:06:21;30.20;99.90
7163;DHT22;3623;47.098;15.446;2023-05-29T11:08:54;29.50;99.90
7163;DHT22;3623;47.098;15.446;2023-05-29T11:14:02;30.30;99.90
7163;DHT22;3623;47.098;15.446;2023-05-29T11:16:37;30.60;99.90
7163;DHT22;3623;47.098;15.446;2023-05-29T11:19:06;29.30;99.90
7163;DHT22;3623;47.098;15.446;2023-05-29T11:21:49;28.30;99.90
7163;DHT22;3623;47.098;15.446;2023-05-29T11:24:22;28.10;99.90
7163;DHT22;3623;47.098;15.446;2023-05-29T11:26:50;26.80;99.90
7163;DHT22;3623;47.098;15.446;2023-05-29T11:29:22;26.40;99.90
7163;DHT22;3623;47.098;15.446;2023-05-29T11:31:54;26.00;99.90
7163;DHT22;3623;47.098;15.446;2023-05-29T11:34:26;26.70;99.90
7163;DHT22;3623;47.098;15.446;2023-05-29T11:36:56;27.10;99.90
7163;DHT22;3623;47.098;15.446;2023-05-29T11:39:23;28.70;99.90
7163;DHT22;3623;47.098;15.446;2023-05-29T11:41:51;29.80;99.90
7163;DHT22;3623;47.098;15.446;2023-05-29T11:44:18;30.60;99.90
7163;DHT22;3623;47.098;15.446;2023-05-29T11:49:13;31.10;99.90
7163;DHT22;3623;47.098;15.446;2023-05-29T11:51:43;29.50;99.90
7163;DHT22;3623;47.098;15.446;2023-05-29T11:54:12;28.70;99.90
7163;DHT22;3623;47.098;15.446;2023-05-29T11:56:39;27.30;99.90
7163;DHT22;3623;47.098;15.446;2023-05-29T11:59:11;27.30;99.90
7163;DHT22;3623;47.098;15.446;2023-05-29T12:01:38;28.30;99.90
7163;DHT22;3623;47.098;15.446;2023-05-29T12:06:43;29.70;99.90
7163;DHT22;3623;47.098;15.446;2023-05-29T12:09:24;29.90;99.90
7163;DHT22;3623;47.098;15.446;2023-05-29T12:14:20;32.30;99.90
7163;DHT22;3623;47.098;15.446;2023-05-29T12:16:47;31.60;99.90
7163;DHT22;3623;47.098;15.446;2023-05-29T12:19:14;31.80;99.90
7163;DHT22;3623;47.098;15.446;2023-05-29T12:24:10;30.00;99.90
7163;DHT22;3623;47.098;15.446;2023-05-29T12:29:05;30.40;99.90
7163;DHT22;3623;47.098;15.446;2023-05-29T12:56:22;30.80;98.00
7163;DHT22;3623;47.098;15.446;2023-05-29T12:58:50;28.90;99.60
7163;DHT22;3623;47.098;15.446;2023-05-29T13:01:18;28.10;99.40
7163;DHT22;3623;47.098;15.446;2023-05-29T13:03:47;27.20;99.90
7163;DHT22;3623;47.098;15.446;2023-05-29T13:06:14;26.80;99.90
7163;DHT22;3623;47.098;15.446;2023-05-29T13:08:42;28.30;99.90
7163;DHT22;3623;47.098;15.446;2023-05-29T13:13:38;28.80;98.70
7163;DHT22;3623;47.098;15.446;2023-05-29T13:16:06;28.20;99.70
7163;DHT22;3623;47.098;15.446;2023-05-29T13:18:33;28.20;99.80
7163;DHT22;3623;47.098;15.446;2023-05-29T13:21:00;29.30;98.60
7163;DHT22;3623;47.098;15.446;2023-05-29T13:23:27;30.00;97.40
7163;DHT22;3623;47.098;15.446;2023-05-29T13:28:22;31.10;97.10
7163;DHT22;3623;47.098;15.446;2023-05-29T13:30:51;31.50;98.30
7163;DHT22;3623;47.098;15.446;2023-05-29T13:33:18;31.70;98.10
7163;DHT22;3623;47.098;15.446;2023-05-29T13:35:45;31.50;96.80
7163;DHT22;3623;47.098;15.446;2023-05-29T13:38:12;30.80;96.60
7163;DHT22;3623;47.098;15.446;2023-05-29T13:43:07;30.50;96.50
7163;DHT22;3623;47.098;15.446;2023-05-29T13:48:03;30.40;96.40
7163;DHT22;3623;47.098;15.446;2023-05-29T13:57:53;31.30;95.40
7163;DHT22;3623;47.098;15.446;2023-05-29T14:00:20;31.80;95.40
7163;DHT22;3623;47.098;15.446;2023-05-29T14:02:47;32.00;95.10
7163;DHT22;3623;47.098;15.446;2023-05-29T14:05:16;30.90;95.30
7163;DHT22;3623;47.098;15.446;2023-05-29T14:07:43;30.90;95.70
7163;DHT22;3623;47.098;15.446;2023-05-29T14:10:11;30.40;96.10
7163;DHT22;3623;47.098;15.446;2023-05-29T14:15:06;31.10;94.90
7163;DHT22;3623;47.098;15.446;2023-05-29T14:17:34;30.70;95.40
7163;DHT22;3623;47.098;15.446;2023-05-29T14:20:01;30.50;95.10
7163;DHT22;3623;47.098;15.446;2023-05-29T14:22:31;30.30;95.40
7163;DHT22;3623;47.098;15.446;2023-05-29T14:24:58;29.50;96.70
7163;DHT22;3623;47.098;15.446;2023-05-29T14:27:26;29.30;97.70
7163;DHT22;3623;47.098;15.446;2023-05-29T14:29:53;29.50;96.40
7163;DHT22;3623;47.098;15.446;2023-05-29T14:32:20;29.70;96.50
7163;DHT22;3623;47.098;15.446;2023-05-29T14:34:48;29.70;96.90
7163;DHT22;3623;47.098;15.446;2023-05-29T14:37:15;29.90;97.40
7163;DHT22;3623;47.098;15.446;2023-05-29T14:39:43;29.00;97.50
7163;DHT22;3623;47.098;15.446;2023-05-29T14:42:11;28.90;97.50
7163;DHT22;3623;47.098;15.446;2023-05-29T14:44:38;28.90;96.20
7163;DHT22;3623;47.098;15.446;2023-05-29T14:47:05;28.40;96.40
7163;DHT22;3623;47.098;15.446;2023-05-29T14:49:32;28.10;96.90
7163;DHT22;3623;47.098;15.446;2023-05-29T14:51:59;28.20;97.60
7163;DHT22;3623;47.098;15.446;2023-05-29T14:54:28;28.20;96.30
7163;DHT22;3623;47.098;15.446;2023-05-29T14:56:57;28.20;97.40
7163;DHT22;3623;47.098;15.446;2023-05-29T14:59:24;28.10;96.90
7163;DHT22;3623;47.098;15.446;2023-05-29T15:01:51;27.80;99.10
7163;DHT22;3623;47.098;15.446;2023-05-29T15:04:19;27.90;97.10
7163;DHT22;3623;47.098;15.446;2023-05-29T15:06:46;27.70;98.00
7163;DHT22;3623;47.098;15.446;2023-05-29T15:09:13;27.30;96.70
7163;DHT22;3623;47.098;15.446;2023-05-29T15:11:40;26.90;97.00
7163;DHT22;3623;47.098;15.446;2023-05-29T15:14:09;26.70;96.70
7163;DHT22;3623;47.098;15.446;2023-05-29T15:16:36;26.90;98.10
7163;DHT22;3623;47.098;15.446;2023-05-29T15:19:03;27.00;97.90
7163;DHT22;3623;47.098;15.446;2023-05-29T15:21:31;27.00;98.00
7163;DHT22;3623;47.098;15.446;2023-05-29T15:23:58;26.70;98.20
7163;DHT22;3623;47.098;15.446;2023-05-29T15:26:25;26.50;98.30
7163;DHT22;3623;47.098;15.446;2023-05-29T15:28:52;25.70;98.10
7163;DHT22;3623;47.098;15.446;2023-05-29T15:31:21;26.00;98.50
7163;DHT22;3623;47.098;15.446;2023-05-29T15:33:49;26.00;98.90
7163;DHT22;3623;47.098;15.446;2023-05-29T15:36:16;25.70;98.40
7163;DHT22;3623;47.098;15.446;2023-05-29T15:38:45;25.30;99.80
7163;DHT22;3623;47.098;15.446;2023-05-29T15:41:12;24.90;99.70
7163;DHT22;3623;47.098;15.446;2023-05-29T15:43:40;24.50;99.20
7163;DHT22;3623;47.098;15.446;2023-05-29T15:46:08;24.40;99.30
7163;DHT22;3623;47.098;15.446;2023-05-29T15:48:36;24.30;99.60
7163;DHT22;3623;47.098;15.446;2023-05-29T15:51:03;24.40;99.90
7163;DHT22;3623;47.098;15.446;2023-05-29T15:53:31;24.60;99.00
7163;DHT22;3623;47.098;15.446;2023-05-29T15:55:58;24.70;98.50
7163;DHT22;3623;47.098;15.446;2023-05-29T15:58:25;25.00;99.90
7163;DHT22;3623;47.098;15.446;2023-05-29T16:00:53;24.80;99.50
7163;DHT22;3623;47.098;15.446;2023-05-29T16:03:20;24.80;98.90
7163;DHT22;3623;47.098;15.446;2023-05-29T16:05:49;24.80;99.90
7163;DHT22;3623;47.098;15.446;2023-05-29T16:08:16;24.90;99.10
7163;DHT22;3623;47.098;15.446;2023-05-29T16:10:43;24.80;98.40
7163;DHT22;3623;47.098;15.446;2023-05-29T16:13:10;24.70;98.70
7163;DHT22;3623;47.098;15.446;2023-05-29T16:15:38;24.70;99.10
7163;DHT22;3623;47.098;15.446;2023-05-29T16:18:05;24.60;98.70
7163;DHT22;3623;47.098;15.446;2023-05-29T16:20:33;24.40;99.30
7163;DHT22;3623;47.098;15.446;2023-05-29T16:23:01;24.10;98.70
7163;DHT22;3623;47.098;15.446;2023-05-29T16:25:29;23.90;99.40
7163;DHT22;3623;47.098;15.446;2023-05-29T16:27:56;23.70;99.90
7163;DHT22;3623;47.098;15.446;2023-05-29T16:30:23;23.50;99.80
7163;DHT22;3623;47.098;15.446;2023-05-29T16:32:51;23.30;99.90
7163;DHT22;3623;47.098;15.446;2023-05-29T16:35:18;23.00;99.70
7163;DHT22;3623;47.098;15.446;2023-05-29T16:37:45;22.80;99.90
7163;DHT22;3623;47.098;15.446;2023-05-29T16:40:13;22.50;99.90
7163;DHT22;3623;47.098;15.446;2023-05-29T16:42:40;22.50;99.90
7163;DHT22;3623;47.098;15.446;2023-05-29T16:45:08;22.50;99.90
7163;DHT22;3623;47.098;15.446;2023-05-29T16:47:35;22.50;99.90
7163;DHT22;3623;47.098;15.446;2023-05-29T16:50:02;22.80;99.90
7163;DHT22;3623;47.098;15.446;2023-05-29T16:52:29;22.70;99.90
7163;DHT22;3623;47.098;15.446;2023-05-29T16:54:56;22.70;99.90
7163;DHT22;3623;47.098;15.446;2023-05-29T16:57:29;22.70;99.90